Cincinnati, OH

12:42 PM EDT on October 31, 2014 (GMT -0400)
APRSWXNET Mt. Healthy OH US | Change Station
CLOSE
Current Station
Personal Weather Station
Location: Cincinnati, OH
Elevation: 777 ft
Nearby Weather Stations

Elev 777 ft 39.24 °N, 84.56 °W | Updated 35 days ago

Rain
Rain
46 °F
Feels Like 46 °F
N
10
Wind Variable Wind from WNW
Gusts 21 mph

Today
High -- | Low -- °F
--% Chance of Precip.
Yesterday
High -- | Low -- °F
Precip. -- in
8:04 AM 6:38 PM
First Quarter, 57% visible
Pressure 29.95 in
Visibility 6.0 miles
Clouds Few 2100 ft
Mostly Cloudy 2700 ft
Overcast 3400 ft
Dew Point 37 °F
Humidity 73%
Rainfall 0.00 in
Snow Depth Not available.
UV 1 out of 12
Pollen .10 out of 12
Air Quality Not available.
Flu Activity Not available.
SPECI KHAO 311631Z AUTO 30007KT 6SM -RA BR FEW021 BKN027 OVC034 08/06 A2995 RMK AO2 P0002 T00780056

More Conditions Fewer Conditions

Pressure 29.95 in
Visibility 6.0 miles
Clouds Few 2100 ft
Mostly Cloudy 2700 ft
Overcast 3400 ft
Dew Point 37 °F
Humidity 73%
Rainfall 0.00 in
Snow Depth Not available.
UV 1 out of 12
Pollen .10 out of 12
Air Quality Not available.
Flu Activity Not available.
SPECI KHAO 311631Z AUTO 30007KT 6SM -RA BR FEW021 BKN027 OVC034 08/06 A2995 RMK AO2 P0002 T00780056

More Conditions Fewer Conditions

10-Day Weather Forecast

Almanac

Astronomy

Oct. 31, 2014 Rise Set
Actual Time
Civil Twilight
Nautical Twilight
Astronomical Twilight
Moon
Length of Visible Light
Length of Day
Tomorrow will be .
, % of the Moon is Illuminated

Today's Extremes

State Highs State Lows

Community

WunderPhotos

Upload Photos

1,766,657 photos uploaded!

WunderBlogs® & News

Nearby

Air Quality

  Air Quality AQ Index Pollutant
Not available.

Snow Depth

Station Depth Elevation

Earthquake Activity

City Distance Mag. Time & Date
Minimum magnitude displayed is 2.5.

Coastal Water Temperatures

Place Temperature

Nearby Weather Stations